Time;durP1;ratioP1;P1;durP2;ratioP2;P2;SDS_P1;SDS_P2;PMS_P1;PMS_P2;Temp;Humidity;BMP_temperature;BMP_pressure;BME280_temperature;BME280_humidity;BME280_pressure;Samples;Min_cycle;Max_cycle;Signal;HPM_P1;HPM_P2
2021/05/13 00:01:45;;;;;;;1.90;0.90;;;;;;;11.74;81.17;99138.28;10503345;28;20040;-70
2021/05/13 00:06:47;;;;;;;1.15;0.90;;;;;;;11.55;81.51;99130.44;10484440;28;20044;-70
2021/05/13 00:11:52;;;;;;;1.92;0.98;;;;;;;11.63;81.56;99129.13;10501712;28;20544;-71
2021/05/13 00:16:54;;;;;;;0.90;0.90;;;;;;;11.57;81.49;99118.94;10518127;28;20068;-71
2021/05/13 00:21:56;;;;;;;0.70;0.70;;;;;;;11.53;81.52;99122.63;10484605;28;20110;-71
2021/05/13 00:27:02;;;;;;;0.77;0.77;;;;;;;11.72;80.75;99105.91;10502184;28;20063;-71
2021/05/13 00:32:04;;;;;;;0.80;0.80;;;;;;;11.56;81.16;99114.59;10502895;28;20041;-71
2021/05/13 00:37:05;;;;;;;2.05;0.80;;;;;;;11.62;80.91;99122.16;10501301;28;20098;-71
2021/05/13 00:42:07;;;;;;;1.00;0.70;;;;;;;11.73;80.69;99126.03;10501780;28;20053;-71
2021/05/13 00:47:09;;;;;;;1.58;0.60;;;;;;;11.75;80.07;99113.66;10500501;28;20040;-71
2021/05/13 00:52:12;;;;;;;2.38;0.75;;;;;;;11.36;81.79;99098.94;10500541;28;20041;-71
2021/05/13 00:57:15;;;;;;;1.02;0.90;;;;;;;11.35;82.17;99092.84;10500349;28;20040;-69
2021/05/13 01:02:17;;;;;;;0.80;0.80;;;;;;;11.55;81.57;99099.75;10500222;28;20045;-70
2021/05/13 01:07:19;;;;;;;0.50;0.40;;;;;;;11.55;81.26;99089.22;10500705;28;20094;-70
2021/05/13 01:12:21;;;;;;;0.40;0.40;;;;;;;11.54;80.87;99098.00;10499157;28;20045;-70
2021/05/13 01:17:37;;;;;;;0.40;0.40;;;;;;;11.58;80.70;99088.19;10499862;28;20513;-70
2021/05/13 01:22:39;;;;;;;0.30;0.30;;;;;;;11.58;80.95;99082.91;10499468;28;20070;-70
2021/05/13 01:27:41;;;;;;;0.82;0.50;;;;;;;11.50;81.02;99070.16;10480287;28;20118;-70
2021/05/13 01:32:43;;;;;;;1.42;0.32;;;;;;;11.56;81.03;99063.75;10481028;28;20390;-70
2021/05/13 01:37:45;;;;;;;1.15;0.50;;;;;;;11.29;81.81;99061.56;10498870;28;20447;-70
2021/05/13 01:42:48;;;;;;;1.23;0.60;;;;;;;11.19;82.45;99055.06;10480087;28;20052;-69
2021/05/13 01:47:50;;;;;;;1.52;0.47;;;;;;;11.39;82.01;99051.44;10498412;28;20524;-71
2021/05/13 01:52:52;;;;;;;0.25;0.25;;;;;;;11.31;81.86;99035.19;10499026;28;20048;-70
2021/05/13 01:57:54;;;;;;;1.00;0.30;;;;;;;11.25;82.21;99035.50;10498000;28;20071;-71
2021/05/13 02:02:56;;;;;;;0.30;0.30;;;;;;;11.50;80.89;99035.94;10498570;28;20132;-70
2021/05/13 02:07:58;;;;;;;1.38;0.45;;;;;;;11.46;81.54;99029.13;10480184;28;20132;-70
2021/05/13 02:13:00;;;;;;;1.55;0.65;;;;;;;11.17;82.21;99029.78;10499692;28;20075;-71
2021/05/13 02:18:02;;;;;;;2.17;0.70;;;;;;;11.28;82.03;99020.38;10497885;28;20072;-70
2021/05/13 02:23:03;;;;;;;1.02;0.85;;;;;;;11.09;82.66;99009.94;10498211;28;20124;-70
2021/05/13 02:28:05;;;;;;;0.40;0.40;;;;;;;11.28;82.44;98996.72;10498412;28;20036;-71
2021/05/13 02:33:07;;;;;;;0.77;0.77;;;;;;;11.25;82.11;98996.03;10498005;28;20041;-70
2021/05/13 02:38:09;;;;;;;0.90;0.90;;;;;;;11.28;82.33;98993.22;10486529;28;20144;-69
2021/05/13 02:43:11;;;;;;;1.10;1.10;;;;;;;11.42;81.61;98989.88;10506661;28;20089;-71
2021/05/13 02:48:13;;;;;;;1.50;1.40;;;;;;;11.21;82.45;98990.09;10505768;28;20052;-70
2021/05/13 02:53:14;;;;;;;2.75;2.55;;;;;;;11.36;81.62;98980.53;10487508;28;20040;-70
2021/05/13 02:58:16;;;;;;;3.15;2.95;;;;;;;11.24;82.11;98992.53;10487788;28;20410;-71
2021/05/13 03:03:18;;;;;;;3.63;3.42;;;;;;;11.20;82.38;98992.78;10505435;28;20041;-69
2021/05/13 03:08:20;;;;;;;3.90;3.60;;;;;;;11.15;81.97;98986.91;10505758;28;20503;-70
2021/05/13 03:13:24;;;;;;;4.18;3.88;;;;;;;11.07;82.67;98982.03;10505290;28;20102;-69
2021/05/13 03:18:28;;;;;;;4.45;4.15;;;;;;;10.97;82.64;98988.69;10504625;28;20044;-69
2021/05/13 03:28:50;;;;;;;4.97;4.68;;;;;;;10.85;83.13;98998.88;10505105;28;20064;-70
2021/05/13 03:33:51;;;;;;;4.22;3.92;;;;;;;10.99;82.49;98985.06;10504347;28;20167;-69
2021/05/13 03:38:53;;;;;;;4.28;3.97;;;;;;;10.88;82.72;98976.00;10503579;28;20045;-69
2021/05/13 03:43:55;;;;;;;4.05;3.65;;;;;;;10.82;83.11;98982.41;10504066;28;20061;-69
2021/05/13 03:48:57;;;;;;;3.95;3.65;;;;;;;10.85;82.65;98979.63;10502407;28;20055;-69
2021/05/13 03:53:59;;;;;;;3.72;3.53;;;;;;;10.93;82.48;98979.22;10503129;28;20115;-71
2021/05/13 03:59:07;;;;;;;4.45;4.15;;;;;;;10.80;82.71;98973.72;10502570;28;20044;-70
2021/05/13 04:04:09;;;;;;;5.22;4.82;;;;;;;10.79;82.85;98979.91;10484387;28;20086;-68
2021/05/13 04:09:12;;;;;;;6.50;6.10;;;;;;;10.79;82.92;98979.91;10502464;28;20478;-70
2021/05/13 04:14:14;;;;;;;6.03;5.63;;;;;;;10.64;82.72;98978.91;10502811;28;20052;-69
2021/05/13 04:19:16;;;;;;;6.28;5.85;;;;;;;10.71;82.70;98982.91;10502020;28;20044;-70
2021/05/13 04:24:20;;;;;;;6.28;5.82;;;;;;;10.85;81.99;98982.28;10501854;28;20076;-71
2021/05/13 04:29:22;;;;;;;6.30;5.80;;;;;;;10.76;82.68;98980.94;10501727;28;20059;-70
2021/05/13 04:34:24;;;;;;;6.28;5.88;;;;;;;10.69;82.42;98987.41;10501401;28;20036;-71
2021/05/13 04:39:26;;;;;;;5.35;4.95;;;;;;;10.77;82.64;98989.69;10484065;28;20079;-70
2021/05/13 04:44:28;;;;;;;6.03;5.63;;;;;;;10.90;81.90;98990.78;10482947;28;20139;-70
2021/05/13 04:49:30;;;;;;;4.90;4.55;;;;;;;10.76;81.78;98983.56;10482952;28;20048;-69
2021/05/13 04:54:32;;;;;;;5.80;5.30;;;;;;;10.75;82.41;98981.84;10500300;28;20072;-70
2021/05/13 04:59:33;;;;;;;5.50;5.03;;;;;;;10.62;82.56;98978.13;10499737;28;20072;-69
2021/05/13 05:04:35;;;;;;;5.10;4.80;;;;;;;10.74;82.26;98980.16;10482005;28;20578;-69
2021/05/13 05:09:38;;;;;;;4.13;3.83;;;;;;;10.82;81.63;98974.53;10500104;28;20564;-69
2021/05/13 05:14:41;;;;;;;5.40;5.00;;;;;;;10.95;81.24;98967.72;10500369;28;20041;-69
2021/05/13 05:19:42;;;;;;;3.63;3.40;;;;;;;10.91;80.91;98968.81;10500085;28;20127;-70
2021/05/13 05:24:44;;;;;;;3.67;3.47;;;;;;;10.91;81.41;98967.97;10499276;28;20043;-70
2021/05/13 05:29:46;;;;;;;4.55;4.20;;;;;;;10.71;82.26;98979.44;10500056;28;20405;-70
2021/05/13 05:34:47;;;;;;;3.55;3.25;;;;;;;10.68;82.30;98977.00;10481691;28;20127;-70
2021/05/13 05:39:49;;;;;;;3.10;2.90;;;;;;;10.73;82.21;98972.34;10499174;28;20119;-70
2021/05/13 05:44:51;;;;;;;2.60;2.40;;;;;;;10.99;81.12;98965.81;10500421;28;20040;-71
2021/05/13 05:49:52;;;;;;;1.92;1.83;;;;;;;10.97;80.57;98968.47;10499898;28;20064;-70
2021/05/13 05:54:56;;;;;;;4.72;2.20;;;;;;;11.00;80.87;98967.50;10498710;28;20036;-69
2021/05/13 05:59:58;;;;;;;1.40;1.30;;;;;;;10.99;80.13;98973.69;10498636;28;20044;-71
2021/05/13 06:05:01;;;;;;;1.10;0.90;;;;;;;10.96;80.03;98974.69;10480793;28;20044;-72
2021/05/13 06:10:06;;;;;;;0.90;0.90;;;;;;;10.74;80.43;98981.94;10500992;28;20072;-73
2021/05/13 06:15:10;;;;;;;0.73;0.70;;;;;;;10.81;80.39;98983.34;10507824;28;20075;-73
2021/05/13 06:20:19;;;;;;;0.98;0.90;;;;;;;10.78;80.59;98980.84;10506800;28;20044;-72
2021/05/13 06:25:22;;;;;;;0.70;0.60;;;;;;;10.75;80.47;98981.84;10507261;28;20032;-72
2021/05/13 06:30:24;;;;;;;0.60;0.60;;;;;;;10.85;79.81;98982.28;10506528;28;20414;-73
2021/05/13 06:35:26;;;;;;;0.95;0.70;;;;;;;10.82;80.38;98980.63;10506174;28;20443;-73
2021/05/13 06:40:28;;;;;;;0.77;0.77;;;;;;;10.89;80.19;98981.19;10506524;28;20052;-73
2021/05/13 06:45:31;;;;;;;0.70;0.70;;;;;;;10.84;80.60;98980.53;10488201;28;20145;-73
2021/05/13 06:50:32;;;;;;;0.80;0.80;;;;;;;10.79;80.08;98972.03;10489086;28;20376;-73
2021/05/13 06:55:34;;;;;;;0.85;0.80;;;;;;;10.86;80.01;98970.81;10505822;28;20071;-72
2021/05/13 07:00:36;;;;;;;0.70;0.70;;;;;;;10.85;79.76;98967.34;10506026;28;20046;-72
2021/05/13 07:05:37;;;;;;;1.20;1.10;;;;;;;10.91;79.95;98973.22;10505382;28;20040;-72
2021/05/13 07:10:39;;;;;;;1.00;1.00;;;;;;;10.78;80.71;98970.34;10505462;28;20068;-73
2021/05/13 07:15:41;;;;;;;1.30;1.20;;;;;;;10.76;80.11;98977.47;10487514;28;20375;-72
2021/05/13 07:20:44;;;;;;;1.52;1.42;;;;;;;10.76;81.00;98974.84;10503950;28;20136;-73
2021/05/13 07:25:49;;;;;;;1.10;1.00;;;;;;;10.68;80.08;98969.09;10486879;28;20064;-72
2021/05/13 07:30:51;;;;;;;1.52;1.42;;;;;;;10.74;80.11;98974.06;10505103;28;20044;-74
2021/05/13 07:35:53;;;;;;;1.38;1.27;;;;;;;10.80;79.56;98957.97;10486162;28;20094;-72
2021/05/13 07:40:55;;;;;;;1.90;1.80;;;;;;;10.71;80.27;98972.41;10486013;28;20044;-73
2021/05/13 07:45:57;;;;;;;1.50;1.40;;;;;;;10.69;80.15;98974.28;10485435;28;20044;-71
2021/05/13 07:50:59;;;;;;;1.60;1.38;;;;;;;10.60;79.99;98972.09;10503273;28;20051;-70
2021/05/13 07:56:01;;;;;;;2.28;1.80;;;;;;;10.69;79.83;98976.06;10485178;28;20064;-73
2021/05/13 08:01:02;;;;;;;2.25;2.15;;;;;;;10.58;81.00;98972.19;10503984;28;20044;-73
2021/05/13 08:06:09;;;;;;;2.58;2.38;;;;;;;10.51;81.67;98972.56;10503599;28;20037;-73
2021/05/13 08:11:10;;;;;;;2.50;2.30;;;;;;;10.64;80.19;98973.66;10502326;28;20391;-72
2021/05/13 08:16:12;;;;;;;2.15;2.00;;;;;;;10.59;80.34;98965.16;10501842;28;20041;-73
2021/05/13 08:21:14;;;;;;;1.80;1.70;;;;;;;10.64;80.75;98964.91;10501745;28;20040;-73
2021/05/13 08:26:16;;;;;;;2.00;1.90;;;;;;;10.54;81.58;98961.91;10501007;28;20037;-72
2021/05/13 08:31:18;;;;;;;1.52;1.42;;;;;;;10.72;80.18;98966.25;10497196;28;20052;-73
2021/05/13 08:36:19;;;;;;;1.65;1.55;;;;;;;10.72;79.85;98966.25;10496701;28;20072;-72
2021/05/13 08:41:21;;;;;;;1.70;1.60;;;;;;;10.71;79.92;98961.03;10496962;28;20144;-71
2021/05/13 08:46:23;;;;;;;2.90;1.75;;;;;;;10.63;80.15;98958.81;10500825;28;20040;-73
2021/05/13 08:51:25;;;;;;;1.50;1.40;;;;;;;10.77;79.70;98958.13;10501612;28;20055;-73
2021/05/13 08:56:28;;;;;;;1.20;1.10;;;;;;;10.70;79.83;98959.34;10500336;28;20090;-73
2021/05/13 09:01:32;;;;;;;1.52;1.42;;;;;;;10.57;80.49;98954.69;10500631;28;20090;-72
2021/05/13 09:06:40;;;;;;;1.65;1.55;;;;;;;10.57;80.72;98959.09;10499980;28;20102;-72
2021/05/13 09:11:51;;;;;;;2.20;1.48;;;;;;;10.51;80.16;98946.28;10482357;28;20071;-72
2021/05/13 09:16:54;;;;;;;2.28;2.17;;;;;;;10.42;82.07;98958.09;10499338;28;20461;-73
2021/05/13 09:22:05;;;;;;;1.92;1.67;;;;;;;10.72;81.03;98965.41;10500254;28;20048;-72
2021/05/13 09:27:23;;;;;;;1.80;1.70;;;;;;;10.58;80.63;98963.41;10499350;28;20085;-72
2021/05/13 09:32:25;;;;;;;2.25;1.67;;;;;;;10.65;80.31;98953.47;10495706;28;20068;-72
2021/05/13 09:37:47;;;;;;;1.92;1.73;;;;;;;10.78;80.18;98968.56;10529330;28;20121;-72
2021/05/13 09:43:08;;;;;;;1.48;1.38;;;;;;;10.72;79.31;98974.13;10499086;28;20557;-72
2021/05/13 09:48:10;;;;;;;1.42;1.33;;;;;;;10.79;79.26;98974.66;10498746;28;20143;-72
2021/05/13 09:53:19;;;;;;;1.88;1.50;;;;;;;10.66;79.98;98977.03;10481062;28;20097;-72
2021/05/13 09:58:23;;;;;;;1.90;1.50;;;;;;;10.54;80.10;98978.50;10499470;28;20401;-72
2021/05/13 10:03:26;;;;;;;1.95;1.70;;;;;;;10.60;79.99;98982.63;10497729;28;20060;-71
2021/05/13 10:08:27;;;;;;;2.05;1.83;;;;;;;10.61;80.02;98974.63;10480118;28;20064;-72
2021/05/13 10:13:31;;;;;;;1.85;1.75;;;;;;;10.53;80.82;98989.06;10498628;28;20041;-72
2021/05/13 10:18:40;;;;;;;1.80;1.70;;;;;;;10.40;80.29;98980.94;10480702;28;20087;-73
2021/05/13 10:23:42;;;;;;;2.95;1.90;;;;;;;10.23;79.58;98989.59;10499094;28;20060;-73
2021/05/13 10:28:43;;;;;;;2.15;1.75;;;;;;;10.26;79.84;98972.84;10481013;28;20062;-72
2021/05/13 10:33:50;;;;;;;4.13;1.70;;;;;;;10.22;79.13;98973.88;10499753;28;20051;-72
2021/05/13 10:39:07;;;;;;;2.20;1.88;;;;;;;10.22;81.13;98973.88;10499191;28;20116;-72
2021/05/13 10:44:09;;;;;;;2.15;2.00;;;;;;;10.17;80.84;98966.22;10479679;28;20080;-72
2021/05/13 10:49:19;;;;;;;2.13;2.03;;;;;;;10.38;80.92;98967.03;10497678;28;20049;-73
2021/05/13 10:54:27;;;;;;;2.80;2.45;;;;;;;10.38;80.33;98966.19;10497141;28;20049;-72
2021/05/13 10:59:29;;;;;;;2.35;2.20;;;;;;;10.43;79.36;98961.56;10504925;28;20057;-73
2021/05/13 11:04:31;;;;;;;1.98;1.75;;;;;;;10.40;80.13;98959.06;10504432;28;20044;-73
2021/05/13 11:09:45;;;;;;;2.13;1.45;;;;;;;10.48;79.66;98949.88;10470794;28;20143;-73
2021/05/13 11:20:33;;;;;;;2.05;1.75;;;;;;;10.41;80.86;98956.38;10506563;28;20045;-73
2021/05/13 11:26:15;;;;;;;2.83;2.20;;;;;;;10.40;80.84;98956.44;10490891;28;20056;-73
2021/05/13 11:31:21;;;;;;;2.75;2.55;;;;;;;10.47;81.14;98955.22;10506080;28;20040;-72
2021/05/13 11:36:37;;;;;;;2.53;2.23;;;;;;;10.43;81.16;98956.28;10506491;28;20406;-73
2021/05/13 11:41:43;;;;;;;1.60;1.50;;;;;;;10.63;81.43;98947.47;10506367;28;20098;-73
2021/05/13 11:46:44;;;;;;;3.60;3.30;;;;;;;10.81;79.70;98951.81;10487877;28;20119;-73
2021/05/13 11:51:46;;;;;;;2.05;1.95;;;;;;;10.75;81.19;98957.34;10502849;28;20041;-74
2021/05/13 11:56:48;;;;;;;2.83;2.53;;;;;;;11.02;79.41;98948.09;10506251;28;20028;-73
2021/05/13 12:01:50;;;;;;;1.90;1.77;;;;;;;11.14;78.75;98945.75;10528889;28;20044;-73
2021/05/13 12:06:59;;;;;;;1.70;1.60;;;;;;;10.96;78.82;98937.88;10521425;28;20040;-73
2021/05/13 12:12:03;;;;;;;2.90;2.60;;;;;;;10.86;79.27;98934.00;10599469;22;20047;-84
2021/05/13 12:17:10;;;;;;;2.70;2.00;;;;;;;10.80;79.50;98942.19;10582728;28;20046;-84
2021/05/13 12:22:14;;;;;;;3.00;2.80;;;;;;;10.90;80.44;98935.56;10584469;28;20105;-85
2021/05/13 12:27:21;;;;;;;1.90;1.80;;;;;;;11.20;78.78;98938.41;10600566;28;20039;-84
2021/05/13 12:32:34;;;;;;;1.52;1.40;;;;;;;11.24;78.38;98933.81;10599737;28;20412;-84
2021/05/13 12:37:38;;;;;;;2.97;2.38;;;;;;;11.07;78.56;98929.44;10584142;28;20047;-83
2021/05/13 12:42:39;;;;;;;2.30;2.17;;;;;;;10.90;79.52;98932.09;10597453;28;20047;-84
2021/05/13 12:47:42;;;;;;;2.60;1.92;;;;;;;11.02;79.02;98928.81;10595979;28;20059;-83
2021/05/13 12:52:45;;;;;;;2.05;1.90;;;;;;;10.93;80.29;98930.13;10611532;28;20044;-84
2021/05/13 12:57:49;;;;;;;4.05;2.70;;;;;;;10.95;79.72;98930.91;10588181;28;20047;-82
2021/05/13 13:03:15;;;;;;;6.50;3.05;;;;;;;10.82;79.36;98930.69;10606102;28;20106;-84
2021/05/13 13:08:42;;;;;;;3.17;2.67;;;;;;;10.86;79.25;98939.28;10577423;28;20137;-83
2021/05/13 13:13:55;;;;;;;3.33;3.03;;;;;;;10.75;78.18;98939.78;10590104;28;20134;-84
2021/05/13 13:19:14;;;;;;;5.03;4.22;;;;;;;10.46;79.84;98935.16;10607153;28;20514;-83
2021/05/13 13:24:24;;;;;;;3.83;3.45;;;;;;;10.60;79.57;98944.03;10590049;28;20047;-82
2021/05/13 13:29:27;;;;;;;3.83;3.00;;;;;;;10.74;79.25;98943.34;10608048;28;20108;-84
2021/05/13 13:34:35;;;;;;;3.88;3.58;;;;;;;10.65;79.37;98954.31;10590248;28;20059;-83
2021/05/13 13:39:38;;;;;;;4.65;3.97;;;;;;;10.77;79.60;98940.59;10597087;28;20063;-82
2021/05/13 13:44:40;;;;;;;4.35;3.95;;;;;;;10.63;79.58;98945.69;10600738;28;20145;-82
2021/05/13 13:49:43;;;;;;;4.68;4.25;;;;;;;10.63;79.93;98948.31;10608075;28;20039;-81
2021/05/13 13:54:45;;;;;;;5.05;4.47;;;;;;;10.62;80.51;98949.22;10632214;28;20020;-80
2021/05/13 13:59:47;;;;;;;3.88;3.40;;;;;;;10.73;80.35;98940.81;10608279;28;20043;-82
2021/05/13 14:04:48;;;;;;;3.20;2.90;;;;;;;10.85;80.39;98940.22;10602015;28;20400;-82
2021/05/13 14:09:50;;;;;;;3.90;2.72;;;;;;;10.75;79.91;98941.56;10603423;28;20056;-81
2021/05/13 14:14:52;;;;;;;3.25;3.05;;;;;;;10.63;81.03;98944.84;10602923;28;20040;-81
2021/05/13 14:19:54;;;;;;;2.80;2.60;;;;;;;10.63;79.73;98931.69;10603602;28;20053;-83
2021/05/13 14:24:56;;;;;;;3.95;3.65;;;;;;;10.42;80.79;98939.69;10606436;28;20043;-85
2021/05/13 14:29:57;;;;;;;4.00;2.55;;;;;;;10.47;80.70;98937.69;10587689;28;20055;-83
2021/05/13 14:35:00;;;;;;;3.72;3.10;;;;;;;10.59;80.07;98929.22;10577079;28;20441;-82
2021/05/13 14:40:05;;;;;;;3.53;3.25;;;;;;;10.64;80.70;98925.50;10595050;28;20089;-82
2021/05/13 14:45:07;;;;;;;2.25;2.05;;;;;;;10.79;79.77;98927.34;10595741;28;20047;-84
2021/05/13 14:50:12;;;;;;;2.40;2.30;;;;;;;10.63;80.05;98929.06;10580739;28;20055;-83
2021/05/13 14:55:14;;;;;;;2.65;2.40;;;;;;;10.72;80.54;98929.44;10620739;28;20061;-83
2021/05/13 15:00:37;;;;;;;6.03;3.40;;;;;;;10.76;80.10;98930.16;10617762;28;20075;-82
2021/05/13 15:05:40;;;;;;;3.28;2.90;;;;;;;10.67;80.14;98930.59;10582562;28;20140;-82
2021/05/13 15:10:42;;;;;;;2.97;2.65;;;;;;;10.53;79.86;98934.75;10582451;28;20056;-82
2021/05/13 15:15:47;;;;;;;3.67;3.35;;;;;;;10.44;80.97;98937.81;10596606;28;20134;-83
2021/05/13 15:20:49;;;;;;;3.13;2.72;;;;;;;10.65;80.48;98935.09;10612491;28;20044;-81
2021/05/13 15:25:51;;;;;;;4.13;3.00;;;;;;;10.58;80.37;98927.50;10615114;28;20043;-83
2021/05/13 15:30:52;;;;;;;2.90;2.60;;;;;;;10.44;79.75;98937.81;10623040;28;20031;-84
2021/05/13 15:35:55;;;;;;;2.78;2.58;;;;;;;10.54;79.85;98933.84;10619641;28;20103;-83
2021/05/13 15:40:57;;;;;;;3.72;2.80;;;;;;;10.56;80.44;98929.34;10608001;28;20069;-83
2021/05/13 15:45:59;;;;;;;2.92;2.60;;;;;;;10.54;80.26;98927.75;10624970;28;20042;-82
2021/05/13 15:51:01;;;;;;;3.20;2.90;;;;;;;10.43;80.90;98919.53;10588040;28;20067;-82
2021/05/13 15:56:03;;;;;;;4.68;3.60;;;;;;;10.40;80.59;98914.41;10592207;28;20038;-82
2021/05/13 16:01:05;;;;;;;2.80;2.55;;;;;;;10.31;80.03;98913.94;10589885;28;20042;-82
2021/05/13 16:06:07;;;;;;;3.88;3.58;;;;;;;10.33;80.55;98908.63;10590571;28;20044;-83
2021/05/13 16:11:21;;;;;;;5.15;4.75;;;;;;;10.20;81.56;98910.09;10590970;28;20052;-82
2021/05/13 16:16:23;;;;;;;3.85;2.95;;;;;;;10.37;80.49;98910.16;10612261;28;20039;-82
2021/05/13 16:21:25;;;;;;;2.85;2.58;;;;;;;10.17;79.39;98916.34;10592110;28;20067;-83
2021/05/13 16:26:43;;;;;;;3.03;2.70;;;;;;;10.02;79.97;98919.72;10590088;28;20089;-83
2021/05/13 16:31:49;;;;;;;3.83;3.28;;;;;;;10.10;80.00;98921.03;10574001;28;20188;-82
2021/05/13 16:36:51;;;;;;;4.45;4.05;;;;;;;10.03;80.49;98924.88;10608996;28;20036;-83
2021/05/13 16:41:53;;;;;;;4.22;3.60;;;;;;;10.15;81.04;98922.59;10608368;28;20043;-84
2021/05/13 16:46:54;;;;;;;4.18;3.75;;;;;;;10.19;80.54;98926.78;10588161;28;20042;-83
2021/05/13 16:51:57;;;;;;;3.95;3.45;;;;;;;10.00;80.76;98929.41;10600587;28;20055;-83
2021/05/13 16:57:00;;;;;;;3.85;3.38;;;;;;;9.90;81.13;98934.25;10616136;28;20039;-83
2021/05/13 17:02:05;;;;;;;3.10;2.80;;;;;;;9.91;80.80;98935.94;10586807;28;20052;-83
2021/05/13 17:07:28;;;;;;;4.25;3.40;;;;;;;9.88;81.00;98928.22;10607230;28;20043;-82
2021/05/13 17:12:35;;;;;;;2.58;2.38;;;;;;;9.83;81.49;98931.06;10585704;28;20069;-82
2021/05/13 17:17:39;;;;;;;3.60;2.72;;;;;;;9.83;81.35;98938.09;10605419;28;20060;-82
2021/05/13 17:22:42;;;;;;;3.72;2.70;;;;;;;9.84;81.65;98930.13;10589524;28;20047;-82
2021/05/13 17:27:44;;;;;;;4.07;2.88;;;;;;;9.89;81.20;98937.81;10612463;28;20065;-81
2021/05/13 17:32:45;;;;;;;2.42;2.22;;;;;;;9.96;81.14;98927.84;10630668;28;20039;-82
2021/05/13 17:37:47;;;;;;;4.22;2.30;;;;;;;9.97;81.54;98935.69;10601749;28;20111;-79
2021/05/13 17:42:49;;;;;;;2.80;2.30;;;;;;;9.91;81.46;98940.34;10602495;28;20089;-81
2021/05/13 17:47:57;;;;;;;2.97;2.50;;;;;;;9.86;80.76;98951.91;10603124;28;20392;-81
2021/05/13 17:53:03;;;;;;;3.38;2.88;;;;;;;9.75;81.86;98950.72;10567493;28;20046;-81
2021/05/13 17:58:05;;;;;;;3.10;2.90;;;;;;;9.89;81.44;98953.56;10581669;28;20043;-81
2021/05/13 18:03:10;;;;;;;3.35;3.05;;;;;;;9.78;81.49;98942.69;10586638;28;20043;-82
2021/05/13 18:08:34;;;;;;;4.18;3.78;;;;;;;9.78;81.40;98948.81;10602303;28;20412;-80
2021/05/13 18:13:38;;;;;;;3.72;3.42;;;;;;;9.81;81.05;98947.81;10624845;22;20070;-84
2021/05/13 18:18:43;;;;;;;4.10;3.70;;;;;;;9.83;81.33;98951.22;10596283;28;20023;-85
2021/05/13 18:23:48;;;;;;;4.57;4.18;;;;;;;9.82;81.47;98949.50;10573077;28;20065;-82
2021/05/13 18:28:50;;;;;;;3.78;3.47;;;;;;;9.74;81.76;98955.13;10572735;28;20066;-83
2021/05/13 18:33:51;;;;;;;3.88;3.47;;;;;;;9.74;82.09;98944.63;10578385;28;20045;-85
2021/05/13 18:38:55;;;;;;;4.40;3.88;;;;;;;9.76;82.03;98949.78;10560566;28;20044;-84
2021/05/13 18:43:58;;;;;;;3.88;3.58;;;;;;;9.70;82.26;98942.22;10542964;28;20116;-85
2021/05/13 18:49:00;;;;;;;3.53;3.17;;;;;;;9.75;81.98;98943.69;10561092;28;20111;-85
2021/05/13 18:54:03;;;;;;;3.90;3.60;;;;;;;9.74;81.48;98951.63;10544931;28;20111;-85
2021/05/13 18:59:04;;;;;;;3.78;3.50;;;;;;;9.79;81.25;98949.66;10545773;28;20046;-84
2021/05/13 19:04:06;;;;;;;4.28;3.88;;;;;;;9.83;80.78;98959.09;10548507;28;20048;-85
2021/05/13 19:09:08;;;;;;;5.28;4.78;;;;;;;9.68;80.92;98965.88;10548380;28;20024;-85
2021/05/13 19:14:09;;;;;;;6.05;4.95;;;;;;;9.74;81.17;98954.25;10565298;28;20048;-86
2021/05/13 19:19:11;;;;;;;5.15;4.65;;;;;;;9.75;80.90;98954.19;10565780;28;20052;-85
2021/05/13 19:24:13;;;;;;;4.97;4.45;;;;;;;9.77;80.76;98959.34;10571501;28;20048;-85
2021/05/13 19:30:01;;;;;;;5.13;4.70;;;;;;;9.70;81.04;98960.56;10569881;28;20040;-86
2021/05/13 19:40:01;;;;;;;7.65;6.88;;;;;;;9.82;80.17;98966.09;10564260;28;20060;-85
2021/05/13 19:45:05;;;;;;;14.27;12.98;;;;;;;9.78;80.41;98959.31;10556114;28;20074;-85
2021/05/13 19:50:10;;;;;;;11.10;10.10;;;;;;;9.64;81.01;98966.94;10552612;28;20063;-85
2021/05/13 19:55:13;;;;;;;45.15;29.92;;;;;;;9.74;80.19;98963.00;10558856;28;20044;-85
2021/05/13 20:00:19;;;;;;;74.53;35.60;;;;;;;9.62;80.53;98968.78;10568590;28;20486;-85
2021/05/13 20:05:35;;;;;;;4.82;4.10;;;;;;;9.76;79.51;98970.78;10549227;28;20068;-86
2021/05/13 20:10:39;;;;;;;4.00;3.53;;;;;;;9.76;80.02;98965.53;10569519;28;20051;-83
2021/05/13 20:15:41;;;;;;;4.00;3.63;;;;;;;9.72;79.92;98970.06;10551810;28;20040;-85
2021/05/13 20:20:43;;;;;;;3.33;3.05;;;;;;;9.72;80.24;98967.44;10531621;28;20138;-85
2021/05/13 20:30:54;;;;;;;4.63;4.22;;;;;;;9.64;80.63;98969.56;10547031;28;20047;-85
2021/05/13 20:36:01;;;;;;;4.80;4.30;;;;;;;9.65;80.56;98962.53;10575849;28;20043;-86
2021/05/13 20:41:05;;;;;;;4.60;4.22;;;;;;;9.74;80.46;98973.47;10544934;28;20083;-86
2021/05/13 20:46:08;;;;;;;4.40;3.95;;;;;;;9.65;80.72;98970.41;10574143;28;20036;-86
2021/05/13 20:56:59;;;;;;;5.00;4.60;;;;;;;9.63;80.66;98965.22;10554698;22;20047;-72
2021/05/13 21:02:04;;;;;;;5.22;4.72;;;;;;;9.75;80.18;98963.84;10553659;28;20063;-71
2021/05/13 21:12:30;;;;;;;4.32;3.95;;;;;;;9.74;79.69;98965.63;10545690;28;20482;-71
2021/05/13 21:23:04;;;;;;;6.25;5.65;;;;;;;9.65;79.98;98962.53;10588503;28;20467;-71
2021/05/13 21:28:09;;;;;;;6.20;5.80;;;;;;;9.56;80.55;98961.16;10576401;28;20530;-71
2021/05/13 21:33:11;;;;;;;6.55;5.95;;;;;;;9.62;80.45;98955.66;10588216;28;20036;-71
2021/05/13 21:38:14;;;;;;;5.78;5.28;;;;;;;9.68;79.84;98965.03;10586525;28;20043;-70
2021/05/13 21:43:19;;;;;;;5.63;5.20;;;;;;;9.69;79.47;98958.84;10585602;28;20121;-71
2021/05/13 21:53:51;;;;;;;6.05;5.55;;;;;;;9.58;80.32;98965.44;10413397;28;20470;-71
2021/05/13 21:58:57;;;;;;;5.72;5.18;;;;;;;9.65;80.10;98971.28;10413920;28;20239;-71
2021/05/13 22:03:59;;;;;;;6.13;5.68;;;;;;;9.62;80.49;98975.81;10413205;28;20061;-71
2021/05/13 22:09:00;;;;;;;6.60;6.10;;;;;;;9.62;80.25;98973.19;10414297;28;20562;-71
2021/05/13 22:14:02;;;;;;;6.18;5.68;;;;;;;9.67;80.00;98973.81;10413260;28;20104;-71
2021/05/13 22:19:04;;;;;;;6.22;5.72;;;;;;;9.71;80.21;98975.38;10412750;28;20041;-71
2021/05/13 22:24:14;;;;;;;6.13;5.63;;;;;;;9.73;80.07;98970.91;10412941;28;20462;-70
2021/05/13 22:29:24;;;;;;;5.70;5.30;;;;;;;9.76;79.75;98973.41;10493122;28;20083;-71
2021/05/13 22:34:26;;;;;;;6.68;5.78;;;;;;;9.78;80.16;98974.19;10582136;28;20047;-71
2021/05/13 22:39:28;;;;;;;6.68;6.18;;;;;;;9.74;79.99;98967.34;10563519;28;20040;-71
2021/05/13 22:44:30;;;;;;;8.07;7.43;;;;;;;9.66;80.14;98974.75;10581329;28;20070;-71
2021/05/13 22:49:34;;;;;;;7.90;7.32;;;;;;;9.67;80.04;98965.94;10563529;28;20134;-71
2021/05/13 22:54:40;;;;;;;8.38;7.78;;;;;;;9.70;79.68;98968.44;10587332;28;20071;-71
2021/05/13 22:59:42;;;;;;;8.80;8.00;;;;;;;9.70;79.30;98964.03;10590403;28;20032;-71
2021/05/13 23:04:44;;;;;;;7.20;6.70;;;;;;;9.78;78.81;98958.44;10590584;28;20078;-69
2021/05/13 23:09:47;;;;;;;7.85;7.25;;;;;;;9.79;79.12;98954.91;10571646;28;20047;-70
2021/05/13 23:20:10;;;;;;;7.60;7.00;;;;;;;9.73;78.76;98949.91;10571044;28;20107;-70
2021/05/13 23:25:13;;;;;;;6.22;5.63;;;;;;;9.68;78.53;98944.03;10588620;28;20539;-70
2021/05/13 23:30:16;;;;;;;6.53;5.93;;;;;;;9.65;78.50;98942.41;10588022;28;20516;-70
2021/05/13 23:35:17;;;;;;;6.43;5.93;;;;;;;9.72;78.23;98946.44;10553916;28;20443;-70
2021/05/13 23:40:19;;;;;;;6.30;5.80;;;;;;;9.69;78.10;98951.81;10588995;28;20485;-70
2021/05/13 23:45:21;;;;;;;6.05;5.47;;;;;;;9.76;77.93;98948.00;10570571;28;20043;-70
2021/05/13 23:50:23;;;;;;;4.85;4.35;;;;;;;9.78;77.50;98946.19;10570273;28;20560;-70
2021/05/13 23:55:27;;;;;;;5.82;5.38;;;;;;;9.78;77.28;98951.44;10587242;28;20492;-70
